RYR2DH EPMO-LHBP
Flight info
| Callsign | RYR2DH |
|---|---|
| Flight time | N/A |
| Altitude | 36000 |
| Route | EVINA M66 BABKO DCT EDEMU |
| Aircraft | B738/M-SDE2E3FGHIRWXY/LB1 |
Departure
| Time | 2026-04-25 10:56 |
|---|---|
| Airport | Warsaw Modlin Airport (EPMO) |
Arrival
| Time | N/A |
|---|---|
| Airport | Budapest Liszt Ferenc International Airport (LHBP) |
| Time | Latitude | Longitude | Altitude | Speed | Heading |
|---|---|---|---|---|---|
| 2026-04-25 10:25 | 52.44736 | 20.65177 | 337 ft | 0 kts | 205° |
| 2026-04-25 10:34 | 52.44736 | 20.65178 | 337 ft | 0 kts | 206° |
| 2026-04-25 10:47 | 52.44737 | 20.65178 | 337 ft | 2 kts | 206° |
| 2026-04-25 10:47 | 52.44755 | 20.65193 | 332 ft | 4 kts | 204° |
| 2026-04-25 10:47 | 52.44776 | 20.65198 | 335 ft | 4 kts | 139° |
| 2026-04-25 10:48 | 52.44783 | 20.65167 | 336 ft | 4 kts | 81° |
| 2026-04-25 10:48 | 52.44780 | 20.65136 | 336 ft | 0 kts | 81° |
| 2026-04-25 10:51 | 52.44780 | 20.65138 | 336 ft | 0 kts | 81° |
| 2026-04-25 10:51 | 52.44782 | 20.65156 | 334 ft | 3 kts | 82° |
| 2026-04-25 10:52 | 52.44789 | 20.65233 | 334 ft | 11 kts | 81° |
| 2026-04-25 10:52 | 52.44805 | 20.65402 | 337 ft | 17 kts | 81° |
| 2026-04-25 10:52 | 52.44823 | 20.65600 | 335 ft | 17 kts | 82° |
| 2026-04-25 10:52 | 52.44839 | 20.65791 | 333 ft | 17 kts | 81° |
| 2026-04-25 10:53 | 52.44856 | 20.65978 | 337 ft | 16 kts | 82° |
| 2026-04-25 10:53 | 52.44873 | 20.66152 | 337 ft | 15 kts | 81° |
| 2026-04-25 10:53 | 52.44889 | 20.66324 | 336 ft | 15 kts | 81° |
| 2026-04-25 10:53 | 52.44904 | 20.66487 | 335 ft | 14 kts | 81° |
| 2026-04-25 10:54 | 52.44919 | 20.66643 | 337 ft | 14 kts | 81° |
| 2026-04-25 10:54 | 52.44928 | 20.66742 | 336 ft | 13 kts | 81° |
| 2026-04-25 10:54 | 52.44947 | 20.66936 | 337 ft | 13 kts | 81° |
| 2026-04-25 10:54 | 52.44971 | 20.67070 | 333 ft | 12 kts | 45° |
| 2026-04-25 10:55 | 52.45054 | 20.67068 | 336 ft | 12 kts | 351° |
| 2026-04-25 10:55 | 52.45136 | 20.67048 | 336 ft | 12 kts | 352° |
| 2026-04-25 10:55 | 52.45215 | 20.67019 | 337 ft | 11 kts | 343° |
| 2026-04-25 10:55 | 52.45282 | 20.66959 | 337 ft | 11 kts | 292° |
| 2026-04-25 10:56 | 52.45276 | 20.66830 | 337 ft | 14 kts | 262° |
| 2026-04-25 10:56 | 52.45224 | 20.66272 | 335 ft | 88 kts | 261° |
| 2026-04-25 10:56 | 52.45095 | 20.64916 | 391 ft | 146 kts | 260° |
| 2026-04-25 10:56 | 52.44915 | 20.63212 | 1114 ft | 153 kts | 258° |
| 2026-04-25 10:57 | 52.44764 | 20.61581 | 2208 ft | 141 kts | 262° |
| 2026-04-25 10:57 | 52.44634 | 20.59891 | 2933 ft | 158 kts | 262° |
| 2026-04-25 10:57 | 52.44551 | 20.58762 | 3308 ft | 171 kts | 263° |